Flag Pond, Tennessee
Current Conditions -  °F | °C
As of 11:55 PM on Friday 31 Oct 2014 (Local Time) from K0A9 Reporting Station
Light Rain Light Rain  
Wind Chill: 29°   Ceiling: 1500
Heat Index: 36°   Visibility: 6mi
Dew Point: 34°   Wind: 8mph
Humidity: 93%   Direction: 260°W
Pressure: 29.89"   Gusts: NA
Location:  36.02°N, 82.56°W
Report Text: K0A9 010355Z AUTO 26007KT 6SM -RA BR OVC015 02/01 A2989 RMK
Loading
Personal Weather Stations






























Interactive Weather Map
Tropical Storm Tracking
New forecast layout! Learn more

10-Day Weather Forecast

Advertisements
Track Severe Weather on mobile